Latest Weather Observations for Moranbah Airport

IDQ60801

Issued at 10:02 pm EST Friday 29 April 2016 (issued every 30 minutes, with the page automatically refreshed every 10 minutes)

About weather observations | Map of weather stations | Latest weather observations for QLD | Other Formats
Station Details ID: 034035 Name: MORANBAH AIRPORT Lat: -22.06 Lon: 148.08 Height: 232.2 m
Data from the previous 72 hours. | See also: Recent months at Moranbah Airport
Date/Time
EST
Temp
°C
App
Temp
°C
Dew
Point
Rel
Hum
%
Delta-T
°C
Wind Press
QNH
hPa
Press
MSL
hPa
Rain
since 9 am
mm
Dir
 
Spd
km/h
Gust
km/h
Spd
kts
Gust
kts
29/10:00pm 21.7 22.2 17.5 77 2.6 ESE 11 13 6 7 1019.6 1018.5 0.0
29/09:30pm 22.7 22.6 17.8 74 3.1 E 15 19 8 10 1019.4 1018.3 0.0
29/09:00pm 22.9 22.8 17.8 73 3.2 E 15 20 8 11 1019.2 1018.1 0.0
29/08:30pm 23.5 23.3 17.7 70 3.6 E 15 17 8 9 1019.0 1017.9 0.0
29/08:00pm 24.0 23.8 17.7 68 4.0 E 15 19 8 10 1018.8 1017.7 0.0
29/07:30pm 23.8 23.8 17.3 67 4.1 ESE 13 15 7 8 1018.3 1017.2 0.0
29/07:00pm 24.1 24.0 16.9 64 4.5 ESE 13 15 7 8 1018.0 1016.9 0.0
29/06:30pm 24.8 25.1 17.0 62 4.9 ESE 11 13 6 7 1017.4 1016.3 0.0
29/06:00pm 26.0 26.3 17.1 58 5.6 ESE 11 13 6 7 1017.1 1016.0 0.0
29/05:30pm 27.6 26.7 17.7 54 6.3 ESE 19 24 10 13 1016.6 1015.5 0.0
29/05:00pm 28.5 28.0 17.7 52 6.9 ESE 17 24 9 13 1016.4 1015.3 0.0
29/04:30pm 29.4 28.5 18.2 51 7.2 ESE 20 32 11 17 1016.1 1015.0 0.0
29/04:00pm 29.5 28.5 18.0 50 7.4 E 20 30 11 16 1015.9 1014.8 0.0
29/03:30pm 29.2 28.3 18.3 51 7.0 ESE 20 30 11 16 1015.9 1014.8 0.0
29/03:00pm 28.9 27.7 18.4 53 6.8 ESE 22 32 12 17 1015.8 1014.7 0.0
29/02:30pm 28.5 27.1 18.0 53 6.7 E 22 32 12 17 1016.0 1014.9 0.0
29/02:00pm 29.1 28.2 19.1 54 6.5 ESE 22 32 12 17 1016.4 1015.3 0.0
29/01:30pm 27.9 26.8 19.4 60 5.6 ESE 24 33 13 18 1016.9 1015.8 0.0
29/01:00pm 27.0 26.0 18.8 60 5.3 E 22 28 12 15 1017.4 1016.3 0.0
29/12:30pm 26.4 25.5 19.0 63 4.8 E 22 28 12 15 1018.1 1017.0 0.0
29/12:00pm 25.9 25.3 18.8 65 4.6 ESE 20 28 11 15 1018.6 1017.5 0.0
29/11:30am 26.6 26.1 19.2 64 4.8 ESE 20 28 11 15 1019.0 1017.9 0.0
29/11:00am 25.9 25.3 18.8 65 4.6 ESE 20 28 11 15 1019.5 1018.4 0.0
29/10:30am 26.7 26.1 19.8 66 4.5 E 22 32 12 17 1019.9 1018.8 0.0
29/10:00am 24.5 23.5 18.9 71 3.6 E 22 30 12 16 1020.5 1019.5 0.0
29/09:30am 24.5 23.6 19.1 72 3.5 E 22 32 12 17 1020.7 1019.7 0.0
29/09:00am 23.3 21.8 18.6 75 3.0 ESE 24 33 13 18 1020.7 1019.7 0.0
29/08:30am 22.9 21.5 18.9 78 2.6 SE 24 33 13 18 1020.5 1019.5 0.0
29/08:00am 22.1 21.4 18.7 81 2.2 ESE 20 30 11 16 1020.2 1019.1 0.0
29/07:30am 21.4 20.9 19.0 86 1.5 SE 20 24 11 13 1020.0 1018.9 0.0
29/07:00am 20.4 20.3 18.7 90 1.1 ESE 17 20 9 11 1019.6 1018.5 0.0
29/06:30am 19.9 19.6 18.2 90 1.1 SE 17 22 9 12 1019.4 1018.3 0.0
29/06:00am 20.2 19.9 18.3 89 1.2 ESE 17 22 9 12 1019.3 1018.2 0.0
29/05:30am 19.5 19.5 18.0 91 0.9 SE 15 19 8 10 1019.1 1018.0 0.0
29/05:00am 19.4 19.3 17.9 91 0.9 SE 15 17 8 9 1018.8 1017.7 0.0
29/04:30am 19.7 19.3 18.0 90 1.1 SE 17 20 9 11 1018.6 1017.5 0.0
29/04:00am 19.7 20.0 18.0 90 1.1 SE 13 17 7 9 1018.6 1017.5 0.0
29/03:30am 20.0 20.3 18.0 88 1.2 ESE 13 17 7 9 1018.5 1017.4 0.0
29/03:00am 20.2 20.2 18.0 87 1.4 SE 15 20 8 11 1018.6 1017.5 0.0
29/02:30am 20.2 19.8 18.0 87 1.4 SE 17 20 9 11 1019.0 1017.9 0.0
29/02:00am 20.2 20.2 18.0 87 1.4 SE 15 17 8 9 1019.4 1018.3 0.0
29/01:30am 20.6 20.9 17.8 84 1.7 ESE 13 17 7 9 1019.4 1018.3 0.0
29/01:00am 21.0 20.7 18.2 84 1.8 SE 17 24 9 13 1019.5 1018.4 0.0
29/12:30am 21.2 21.2 18.0 82 2.0 ESE 15 20 8 11 1019.5 1018.4 0.0
29/12:00am 21.9 20.6 18.1 79 2.4 ESE 22 30 12 16 1019.7 1018.6 0.0
 
Date/Time
EST
Temp
°C
App
Temp
°C
Dew
Point
Rel
Hum
%
Delta-T
°C
Wind Press
QNH
hPa
Press
MSL
hPa
Rain
since 9 am
mm
Dir
 
Spd
km/h
Gust
km/h
Spd
kts
Gust
kts
28/11:30pm 22.2 21.1 18.6 80 2.3 ESE 22 32 12 17 1019.9 1018.8 0.0
28/11:00pm 22.2 21.0 19.2 83 1.9 ESE 24 33 13 18 1020.1 1019.0 0.0
28/10:30pm 22.1 22.0 20.0 88 1.4 ESE 20 28 11 15 1020.1 1019.0 0.0
28/10:00pm 22.8 22.9 19.2 80 2.3 ESE 17 22 9 12 1020.1 1019.0 0.0
28/09:30pm 23.3 22.8 18.6 75 3.0 E 19 28 10 15 1020.1 1019.0 0.0
28/09:00pm 22.9 23.6 18.0 74 3.1 ESE 11 15 6 8 1019.9 1018.8 0.0
28/08:30pm 22.4 22.4 17.1 72 3.3 ESE 13 15 7 8 1019.6 1018.5 0.0
28/08:00pm 22.9 23.1 16.7 68 3.8 ESE 11 13 6 7 1019.2 1018.1 0.0
28/07:30pm 23.9 24.1 16.7 64 4.5 E 11 13 6 7 1018.9 1017.8 0.0
28/07:00pm 25.0 24.4 16.7 60 5.2 E 15 19 8 10 1018.4 1017.3 0.0
28/06:30pm 25.9 24.9 16.7 57 5.7 ESE 17 22 9 12 1017.9 1016.8 0.0
28/06:00pm 26.6 25.2 16.5 54 6.3 E 19 24 10 13 1017.4 1016.3 0.0
28/05:30pm 27.3 25.8 16.3 51 6.9 E 19 33 10 18 1017.0 1015.9 0.0
28/05:00pm 27.9 26.1 15.9 48 7.4 E 20 30 11 16 1016.8 1015.7 0.0
28/04:30pm 29.0 25.9 16.5 46 7.9 ESE 28 37 15 20 1016.4 1015.3 0.0
28/04:00pm 28.8 26.4 16.4 47 7.8 ESE 24 37 13 20 1016.2 1015.1 0.0
28/03:30pm 29.6 28.3 18.1 50 7.4 ESE 22 32 12 17 1016.2 1015.1 0.0
28/03:00pm 28.6 26.2 16.5 48 7.6 ESE 24 30 13 16 1016.6 1015.5 0.0
28/02:30pm 29.4 26.3 17.6 49 7.6 ESE 30 39 16 21 1016.8 1015.7 0.0
28/02:00pm 29.2 27.0 18.6 52 6.9 ESE 28 37 15 20 1016.8 1015.7 0.0
28/01:30pm 27.5 25.3 16.8 52 6.7 ESE 24 33 13 18 1016.9 1015.8 0.0
28/01:00pm 27.9 26.5 17.1 51 6.8 E 20 30 11 16 1017.3 1016.2 0.0
28/12:30pm 26.3 24.1 16.8 56 5.9 ESE 24 30 13 16 1017.9 1016.8 0.0
28/12:00pm 27.0 26.1 17.8 57 5.9 ESE 19 26 10 14 1018.2 1017.1 0.0
28/11:30am 27.1 25.4 18.1 58 5.8 E 24 33 13 18 1018.5 1017.4 0.0
28/11:00am 25.8 23.9 17.7 61 5.1 ESE 24 32 13 17 1019.0 1017.9 0.0
28/10:30am 25.3 23.6 18.0 64 4.6 ESE 24 32 13 17 1019.3 1018.2 0.0
28/10:00am 23.9 22.0 17.6 68 4.0 SE 24 32 13 17 1019.4 1018.3 0.0
28/09:30am 24.4 21.9 18.1 68 4.0 ESE 28 35 15 19 1019.3 1018.2 0.0
28/09:00am 23.7 21.4 17.7 69 3.8 ESE 26 37 14 20 1019.0 1017.9 0.0
28/08:30am 22.7 19.7 17.8 74 3.1 ESE 30 43 16 23 1018.8 1017.7 0.0
28/08:00am 21.7 19.1 17.9 79 2.4 ESE 28 35 15 19 1018.6 1017.5 0.0
28/07:30am 21.2 19.5 18.0 82 2.0 ESE 24 33 13 18 1018.5 1017.4 0.0
28/07:00am 20.8 20.8 18.0 84 1.7 ESE 15 20 8 11 1018.5 1017.4 0.0
28/06:30am 20.5 19.7 17.9 85 1.6 SE 19 24 10 13 1018.2 1017.1 0.0
28/06:00am 20.4 19.9 17.8 85 1.6 SE 17 22 9 12 1017.9 1016.8 0.0
28/05:30am 20.2 19.7 17.8 86 1.5 ESE 17 20 9 11 1017.7 1016.6 0.0
28/05:00am 19.8 19.0 17.2 85 1.6 SE 17 24 9 13 1017.5 1016.4 0.0
28/04:30am 20.6 19.6 17.6 83 1.9 SE 19 24 10 13 1017.6 1016.5 0.0
28/04:00am 20.0 19.5 17.0 83 1.8 ESE 15 20 8 11 1017.6 1016.5 0.0
28/03:30am 20.6 20.6 17.2 81 2.1 ESE 13 17 7 9 1017.4 1016.3 0.0
28/03:00am 20.8 20.0 17.2 80 2.2 ESE 17 20 9 11 1017.6 1016.5 0.0
28/02:30am 21.0 20.2 17.2 79 2.3 E 17 20 9 11 1017.6 1016.5 0.0
28/02:00am 21.8 20.7 17.4 76 2.7 ESE 19 24 10 13 1017.8 1016.7 0.0
28/01:30am 22.1 21.1 17.5 75 2.9 E 19 26 10 14 1017.9 1016.8 0.0
28/01:00am 22.1 21.6 17.7 76 2.7 E 17 22 9 12 1018.2 1017.1 0.0
28/12:30am 22.3 20.7 17.4 74 3.1 E 22 30 12 16 1018.3 1017.2 0.0
28/12:00am 22.2 21.1 17.3 74 3.0 ESE 19 28 10 15 1018.6 1017.5 0.0
 
Date/Time
EST
Temp
°C
App
Temp
°C
Dew
Point
Rel
Hum
%
Delta-T
°C
Wind Press
QNH
hPa
Press
MSL
hPa
Rain
since 9 am
mm
Dir
 
Spd
km/h
Gust
km/h
Spd
kts
Gust
kts
27/11:30pm 22.8 21.8 17.5 72 3.3 E 19 26 10 14 1018.8 1017.7 0.0
27/11:00pm 22.9 22.7 17.6 72 3.3 E 15 17 8 9 1018.9 1017.8 0.0
27/10:30pm 23.0 22.4 17.5 71 3.4 E 17 24 9 13 1019.0 1017.9 0.0
27/10:00pm 23.2 22.1 17.4 70 3.6 E 19 26 10 14 1019.1 1018.0 0.0
27/09:30pm 23.4 22.5 17.8 71 3.5 ESE 19 26 10 14 1019.2 1018.1 0.0
27/09:00pm 23.1 23.1 18.2 74 3.1 ESE 15 20 8 11 1019.1 1018.0 0.0
27/08:30pm 23.0 22.3 18.3 75 3.0 ESE 19 24 10 13 1019.0 1017.9 0.0
27/08:00pm 23.2 23.4 18.5 75 3.0 ESE 15 19 8 10 1018.8 1017.7 0.0
27/07:30pm 23.2 24.1 18.5 75 3.0 E 11 15 6 8 1018.5 1017.4 0.0
27/07:00pm 23.3 24.2 18.4 74 3.1 ENE 11 15 6 8 1018.4 1017.3 0.0
27/06:30pm 23.5 24.0 18.4 73 3.2 ENE 13 17 7 9 1018.0 1016.9 0.0
27/06:00pm 23.7 24.2 18.4 72 3.4 E 13 17 7 9 1017.6 1016.5 0.0
27/05:30pm 23.8 23.6 18.4 72 3.4 E 17 26 9 14 1017.4 1016.3 0.0
27/05:00pm 24.0 22.8 18.4 71 3.6 ENE 22 28 12 15 1017.1 1016.0 0.0
27/04:30pm 24.5 21.9 17.7 66 4.3 E 28 37 15 20 1017.0 1015.9 0.0
27/04:00pm 26.2 23.4 18.1 61 5.2 E 30 41 16 22 1016.4 1015.3 0.0
27/03:30pm 27.1 24.6 18.1 58 5.8 ESE 28 39 15 21 1016.2 1015.1 0.0
27/03:00pm 26.3 23.4 17.9 60 5.3 ESE 30 41 16 22 1016.3 1015.2 0.0
27/02:30pm 27.4 24.0 18.1 57 6.0 ESE 33 44 18 24 1016.2 1015.1 0.0
27/02:00pm 27.8 25.1 17.6 53 6.5 E 28 39 15 21 1016.3 1015.2 0.0
27/01:30pm 27.9 24.8 17.4 52 6.7 E 30 39 16 21 1016.6 1015.5 0.0
27/01:00pm 26.6 24.0 17.9 59 5.5 E 28 35 15 19 1017.2 1016.1 0.0
27/12:30pm 26.3 23.4 17.1 57 5.8 ESE 28 39 15 21 1017.3 1016.2 0.0
27/12:00pm 26.1 22.9 16.4 55 6.0 ESE 28 39 15 21 1017.7 1016.6 0.0
27/11:30am 26.7 22.6 16.0 52 6.6 E 32 43 17 23 1017.9 1016.8 0.0
27/11:00am 25.1 20.8 16.0 57 5.6 ESE 33 44 18 24 1018.6 1017.5 0.0
27/10:39am 25.5 22.0 16.4 57 5.6 ESE 30 50 16 27 1018.8 1017.7 0.0
27/10:30am 25.1 21.6 16.5 59 5.3 ESE 30 41 16 22 1019.0 1017.9 0.0
27/10:00am 23.5 18.8 15.8 62 4.7 SE 35 44 19 24 1019.5 1018.4 0.0
27/09:30am 23.7 19.8 15.5 60 5.0 ESE 30 39 16 21 1019.6 1018.5 0.0
27/09:00am 22.6 18.0 15.2 63 4.4 ESE 33 46 18 25 1019.5 1018.4 0.0
27/08:30am 21.9 17.6 14.5 63 4.4 SE 30 39 16 21 1019.4 1018.3 0.0
27/08:00am 21.3 17.8 14.5 65 4.0 SE 26 37 14 20 1019.3 1018.2 0.0
27/07:30am 20.5 18.1 14.4 68 3.6 SE 20 28 11 15 1019.0 1017.9 0.0
27/07:00am 19.7 17.8 14.1 70 3.3 SE 17 22 9 12 1018.7 1017.6 0.0
27/06:30am 19.7 17.5 14.3 71 3.2 SE 19 28 10 15 1018.4 1017.3 0.0
27/06:00am 20.0 16.9 14.6 71 3.2 SE 24 32 13 17 1018.1 1017.0 0.0
27/05:30am 20.3 17.3 14.7 70 3.3 SE 24 35 13 19 1017.9 1016.8 0.0
27/05:00am 20.5 17.0 14.4 68 3.6 SE 26 33 14 18 1017.8 1016.7 0.0
27/04:30am 20.7 16.8 14.4 67 3.7 SE 28 35 15 19 1017.8 1016.7 0.0
27/04:00am 21.0 17.1 14.4 66 3.9 SE 28 37 15 20 1017.5 1016.4 0.0
27/03:30am 21.1 17.1 14.0 64 4.2 SE 28 35 15 19 1017.6 1016.5 0.0
27/03:00am 21.0 17.6 13.7 63 4.2 SE 24 33 13 18 1017.7 1016.6 0.0
27/02:30am 21.8 17.7 13.9 61 4.6 ESE 28 37 15 20 1017.8 1016.7 0.0
27/02:00am 21.8 19.3 14.2 62 4.5 ESE 20 28 11 15 1017.9 1016.8 0.0
27/01:30am 22.1 19.4 14.5 62 4.5 ESE 22 32 12 17 1018.2 1017.1 0.0
27/01:00am 22.4 19.8 14.8 62 4.5 ESE 22 32 12 17 1018.5 1017.4 0.0
27/12:30am 22.3 19.3 14.7 62 4.5 ESE 24 33 13 18 1018.8 1017.7 0.0
27/12:00am 22.5 20.0 15.1 63 4.4 ESE 22 32 12 17 1019.1 1018.0 0.0
 
Date/Time
EST
Temp
°C
App
Temp
°C
Dew
Point
Rel
Hum
%
Delta-T
°C
Wind Press
QNH
hPa
Press
MSL
hPa
Rain
since 9 am
mm
Dir
 
Spd
km/h
Gust
km/h
Spd
kts
Gust
kts
26/11:30pm 22.9 20.4 15.2 62 4.6 E 22 32 12 17 1019.3 1018.2 0.0
26/11:00pm 23.1 20.3 15.4 62 4.6 ESE 24 33 13 18 1019.4 1018.3 0.0
26/10:30pm 23.3 21.3 15.4 61 4.8 E 20 28 11 15 1019.6 1018.5 0.0

Other Formats:

Comma delimited format used in spreadsheet applications
http://www.bom.gov.au/fwo/IDQ60801/IDQ60801.94397.axf

JavaScript Object Notation format (JSON) in row-major order
http://www.bom.gov.au/fwo/IDQ60801/IDQ60801.94397.json